Time;durP1;ratioP1;P1;durP2;ratioP2;P2;SDS_P1;SDS_P2;PMS_P1;PMS_P2;Temp;Humidity;BMP_temperature;BMP_pressure;BME280_temperature;BME280_humidity;BME280_pressure;Samples;Min_cycle;Max_cycle;Signal;HPM_P1;HPM_P2
2023/05/01 00:02:12;;;;;;;;;;;16.10;73.20;;;;;;4944349;29;19997;-96
2023/05/01 00:04:38;;;;;;;;;;;16.10;73.00;;;;;;4925739;29;20001;-96
2023/05/01 00:07:04;;;;;;;;;;;16.30;72.70;;;;;;4925868;29;20323;-96
2023/05/01 00:09:31;;;;;;;;;;;16.30;72.30;;;;;;4925069;29;19918;-96
2023/05/01 00:11:56;;;;;;;;;;;16.30;72.30;;;;;;4943187;29;19938;-96
2023/05/01 00:14:22;;;;;;;;;;;16.30;72.00;;;;;;4943417;29;19922;-96
2023/05/01 00:16:47;;;;;;;;;;;16.30;71.80;;;;;;4926837;29;20017;-96
2023/05/01 00:19:17;;;;;;;;;;;16.40;71.30;;;;;;4926209;29;19918;-96
2023/05/01 00:21:44;;;;;;;;;;;16.50;70.70;;;;;;4925520;29;19911;-96
2023/05/01 00:24:10;;;;;;;;;;;16.50;70.50;;;;;;4942312;29;19911;-96
2023/05/01 00:26:35;;;;;;;;;;;16.50;70.20;;;;;;4942893;29;19918;-96
2023/05/01 00:29:01;;;;;;;;;;;16.60;70.10;;;;;;4943343;29;19911;-96
2023/05/01 00:31:27;;;;;;;;;;;16.60;70.10;;;;;;4925337;29;19922;-96
2023/05/01 00:33:53;;;;;;;;;;;16.60;70.00;;;;;;4925703;29;19915;-96
2023/05/01 00:36:19;;;;;;;;;;;16.50;69.80;;;;;;4943092;29;19918;-96
2023/05/01 00:38:45;;;;;;;;;;;16.50;70.00;;;;;;4924627;29;19915;-96
2023/05/01 00:41:11;;;;;;;;;;;16.50;70.10;;;;;;4924379;29;19911;-96
2023/05/01 00:43:36;;;;;;;;;;;16.50;70.00;;;;;;4942041;29;19911;-96
2023/05/01 00:46:02;;;;;;;;;;;16.50;70.40;;;;;;4924989;29;19938;-96
2023/05/01 00:48:28;;;;;;;;;;;16.50;70.10;;;;;;4942471;29;20279;-96
2023/05/01 00:50:54;;;;;;;;;;;16.50;70.10;;;;;;4925178;29;19911;-96
2023/05/01 00:53:20;;;;;;;;;;;16.50;69.80;;;;;;4933547;29;19927;-96
2023/05/01 00:55:46;;;;;;;;;;;16.40;69.50;;;;;;4944008;29;19910;-96
2023/05/01 00:58:12;;;;;;;;;;;16.50;70.00;;;;;;4944663;29;20401;-96
2023/05/01 01:00:38;;;;;;;;;;;16.40;69.80;;;;;;4962339;29;19910;-96
2023/05/01 01:03:04;;;;;;;;;;;16.40;69.70;;;;;;4944147;29;20263;-96
2023/05/01 01:05:31;;;;;;;;;;;16.40;69.50;;;;;;4944954;29;19965;-96
2023/05/01 01:08:29;;;;;;;;;;;16.40;69.30;;;;;;4961299;29;19914;-96
2023/05/01 01:11:00;;;;;;;;;;;16.40;69.60;;;;;;4923012;29;19966;-96
2023/05/01 01:13:32;;;;;;;;;;;16.30;69.20;;;;;;4961677;29;19911;-96
2023/05/01 01:16:03;;;;;;;;;;;16.30;69.30;;;;;;4962166;29;19962;-96
2023/05/01 01:19:07;;;;;;;;;;;16.30;69.70;;;;;;4944053;29;19942;-96
2023/05/01 01:21:37;;;;;;;;;;;16.30;69.80;;;;;;4886495;29;20038;-96
2023/05/01 01:24:12;;;;;;;;;;;16.30;69.70;;;;;;4901630;29;19912;-96
2023/05/01 01:26:44;;;;;;;;;;;16.40;69.30;;;;;;4934289;29;19915;-96
2023/05/01 01:29:09;;;;;;;;;;;16.40;69.30;;;;;;4962511;29;19911;-96
2023/05/01 01:31:58;;;;;;;;;;;16.40;68.60;;;;;;4946149;29;19918;-96
2023/05/01 01:34:26;;;;;;;;;;;16.40;68.70;;;;;;4939219;29;19914;-96
2023/05/01 01:36:59;;;;;;;;;;;16.40;68.50;;;;;;4962959;29;19993;-96
2023/05/01 01:39:52;;;;;;;;;;;16.30;68.80;;;;;;4945343;29;19917;-96
2023/05/01 01:42:19;;;;;;;;;;;16.30;68.70;;;;;;4942763;29;20371;-96
2023/05/01 01:44:55;;;;;;;;;;;16.30;68.40;;;;;;4962527;28;19921;-96
2023/05/01 01:47:27;;;;;;;;;;;16.30;68.70;;;;;;4944458;29;20263;-96
2023/05/01 01:49:54;;;;;;;;;;;16.30;68.50;;;;;;4962237;29;19934;-96
2023/05/01 01:52:21;;;;;;;;;;;16.30;67.90;;;;;;4960572;28;19915;-96
2023/05/01 01:54:49;;;;;;;;;;;16.30;68.30;;;;;;4925181;29;19922;-96
2023/05/01 01:57:16;;;;;;;;;;;16.30;68.20;;;;;;4926116;29;20363;-96
2023/05/01 01:59:42;;;;;;;;;;;16.30;68.00;;;;;;4925734;29;19946;-96
2023/05/01 02:02:08;;;;;;;;;;;16.30;67.00;;;;;;4942399;29;19923;-96
2023/05/01 02:04:35;;;;;;;;;;;16.30;67.00;;;;;;4924590;29;19917;-96
2023/05/01 02:07:01;;;;;;;;;;;16.20;67.30;;;;;;4924883;29;19917;-96
2023/05/01 02:09:28;;;;;;;;;;;16.20;67.10;;;;;;4925106;29;19977;-96
2023/05/01 02:11:54;;;;;;;;;;;16.30;66.80;;;;;;4924587;29;19911;-96
2023/05/01 02:14:20;;;;;;;;;;;16.20;67.30;;;;;;4924683;29;19915;-96
2023/05/01 02:16:47;;;;;;;;;;;16.20;66.80;;;;;;4924849;29;19918;-96
2023/05/01 02:19:14;;;;;;;;;;;16.10;66.90;;;;;;4924582;29;19957;-96
2023/05/01 02:21:40;;;;;;;;;;;16.10;66.40;;;;;;4923962;29;19911;-96
2023/05/01 02:24:06;;;;;;;;;;;16.10;66.50;;;;;;4923878;29;20381;-96
2023/05/01 02:26:37;;;;;;;;;;;16.10;66.40;;;;;;4924210;29;20375;-96
2023/05/01 02:29:06;;;;;;;;;;;16.00;65.80;;;;;;4923732;29;19910;-96
2023/05/01 02:31:31;;;;;;;;;;;16.00;65.90;;;;;;4942122;29;19918;-96
2023/05/01 02:33:57;;;;;;;;;;;16.00;65.30;;;;;;4924318;29;19919;-96
2023/05/01 02:36:23;;;;;;;;;;;16.00;65.50;;;;;;4925489;29;19911;-96
2023/05/01 02:38:50;;;;;;;;;;;15.90;65.30;;;;;;4923713;29;19911;-96
2023/05/01 02:41:18;;;;;;;;;;;15.90;64.70;;;;;;4923332;29;19942;-96
2023/05/01 02:43:45;;;;;;;;;;;15.90;64.70;;;;;;4923457;29;19911;-96
2023/05/01 02:46:12;;;;;;;;;;;15.90;64.70;;;;;;4925450;29;19934;-96
2023/05/01 02:48:39;;;;;;;;;;;15.90;64.00;;;;;;4927768;29;19922;-96
2023/05/01 02:51:05;;;;;;;;;;;15.90;64.30;;;;;;4926988;29;19911;-96
2023/05/01 02:53:32;;;;;;;;;;;15.80;63.40;;;;;;4943014;28;20390;-96
2023/05/01 02:55:58;;;;;;;;;;;15.80;63.20;;;;;;4943881;29;19946;-96
2023/05/01 02:58:23;;;;;;;;;;;15.80;62.90;;;;;;4927222;29;19911;-96
2023/05/01 03:00:49;;;;;;;;;;;15.80;62.80;;;;;;4927228;29;20023;-96
2023/05/01 03:03:15;;;;;;;;;;;15.80;63.10;;;;;;4944850;29;19926;-96
2023/05/01 03:05:41;;;;;;;;;;;15.80;62.60;;;;;;4926990;29;20005;-96
2023/05/01 03:08:06;;;;;;;;;;;15.80;62.60;;;;;;4927892;29;20278;-96
2023/05/01 03:10:32;;;;;;;;;;;15.70;62.20;;;;;;4944798;29;19936;-96
2023/05/01 03:12:59;;;;;;;;;;;15.70;62.30;;;;;;4926663;29;19915;-96
2023/05/01 03:15:24;;;;;;;;;;;15.70;62.20;;;;;;4927429;29;19915;-96
2023/05/01 03:17:50;;;;;;;;;;;15.60;61.50;;;;;;4943716;29;19959;-96
2023/05/01 03:20:16;;;;;;;;;;;15.60;61.40;;;;;;4926217;29;19911;-96
2023/05/01 03:22:41;;;;;;;;;;;15.50;60.70;;;;;;4926686;29;19918;-96
2023/05/01 03:25:08;;;;;;;;;;;15.50;60.80;;;;;;4926287;29;19915;-96
2023/05/01 03:27:33;;;;;;;;;;;15.50;60.90;;;;;;4943128;29;19911;-96
2023/05/01 03:29:59;;;;;;;;;;;15.50;61.90;;;;;;4942921;29;19911;-96
2023/05/01 03:32:27;;;;;;;;;;;15.50;62.00;;;;;;4926338;29;20014;-96
2023/05/01 03:34:52;;;;;;;;;;;15.50;62.20;;;;;;4943544;29;19921;-96
2023/05/01 03:37:18;;;;;;;;;;;15.40;62.90;;;;;;4926033;29;19915;-96
2023/05/01 03:39:44;;;;;;;;;;;15.40;63.30;;;;;;4925410;29;19911;-96
2023/05/01 03:42:09;;;;;;;;;;;15.40;63.80;;;;;;4943216;29;19965;-96
2023/05/01 03:44:35;;;;;;;;;;;15.30;64.30;;;;;;4925620;29;19948;-96
2023/05/01 03:47:01;;;;;;;;;;;15.30;64.30;;;;;;4925170;29;20444;-96
2023/05/01 03:49:27;;;;;;;;;;;15.30;64.80;;;;;;4925997;29;19910;-96
2023/05/01 03:51:53;;;;;;;;;;;15.30;65.00;;;;;;4943492;29;19922;-96
2023/05/01 03:54:18;;;;;;;;;;;15.30;65.60;;;;;;4941676;29;19982;-96
2023/05/01 03:56:44;;;;;;;;;;;15.30;66.10;;;;;;4962435;28;19911;-96
2023/05/01 03:59:10;;;;;;;;;;;15.30;65.80;;;;;;4943724;29;19911;-96
2023/05/01 04:01:36;;;;;;;;;;;15.30;66.20;;;;;;4943274;29;19910;-96
2023/05/01 04:04:02;;;;;;;;;;;15.30;66.60;;;;;;4960788;28;19911;-96
2023/05/01 04:06:28;;;;;;;;;;;15.30;66.40;;;;;;4943617;29;19973;-96
2023/05/01 04:08:53;;;;;;;;;;;15.20;66.10;;;;;;4961652;29;19910;-96
2023/05/01 04:11:19;;;;;;;;;;;15.20;66.10;;;;;;4943860;29;19958;-96
2023/05/01 04:13:45;;;;;;;;;;;15.10;66.60;;;;;;4960758;29;20001;-96
2023/05/01 04:16:11;;;;;;;;;;;15.10;66.30;;;;;;4943503;29;19969;-96
2023/05/01 04:18:36;;;;;;;;;;;15.00;66.40;;;;;;4960986;29;19962;-96
2023/05/01 04:21:02;;;;;;;;;;;14.90;67.00;;;;;;4943501;29;19978;-96
2023/05/01 04:23:28;;;;;;;;;;;14.90;66.60;;;;;;4943441;29;19940;-96
2023/05/01 04:25:53;;;;;;;;;;;14.90;66.70;;;;;;4942700;29;19910;-96
2023/05/01 04:28:19;;;;;;;;;;;14.80;66.90;;;;;;4943023;29;19982;-96
2023/05/01 04:30:45;;;;;;;;;;;14.80;66.80;;;;;;4943977;29;19921;-96
2023/05/01 04:33:10;;;;;;;;;;;14.80;66.50;;;;;;4960614;29;19937;-96
2023/05/01 04:35:38;;;;;;;;;;;14.70;66.60;;;;;;4942096;29;19914;-96
2023/05/01 04:38:07;;;;;;;;;;;14.80;66.40;;;;;;4942212;29;19911;-96
2023/05/01 04:40:33;;;;;;;;;;;14.80;66.60;;;;;;4941924;29;20409;-96
2023/05/01 04:42:58;;;;;;;;;;;14.80;66.40;;;;;;4958870;28;20009;-96
2023/05/01 04:45:24;;;;;;;;;;;14.70;66.60;;;;;;4959032;29;19962;-96
2023/05/01 04:47:50;;;;;;;;;;;14.70;66.80;;;;;;4940849;29;19910;-96
2023/05/01 04:50:15;;;;;;;;;;;14.80;66.80;;;;;;4958609;29;19914;-96
2023/05/01 04:52:41;;;;;;;;;;;14.80;66.60;;;;;;4941152;29;19954;-96
2023/05/01 04:55:08;;;;;;;;;;;14.70;67.00;;;;;;4941189;29;19921;-96
2023/05/01 04:57:34;;;;;;;;;;;14.80;67.50;;;;;;4941068;29;20298;-96
2023/05/01 05:00:00;;;;;;;;;;;14.70;67.30;;;;;;4941412;29;19917;-96
2023/05/01 05:02:25;;;;;;;;;;;14.70;67.40;;;;;;4941170;29;19910;-96
2023/05/01 05:04:53;;;;;;;;;;;14.70;67.30;;;;;;4940952;29;20274;-96
2023/05/01 05:07:19;;;;;;;;;;;14.60;67.40;;;;;;4958503;29;19965;-96
2023/05/01 05:09:45;;;;;;;;;;;14.70;66.90;;;;;;4940608;29;20449;-96
2023/05/01 05:12:10;;;;;;;;;;;14.80;66.80;;;;;;4941143;29;20009;-96
2023/05/01 05:14:36;;;;;;;;;;;14.80;67.00;;;;;;4939965;29;19915;-96
2023/05/01 05:17:02;;;;;;;;;;;14.80;66.00;;;;;;4957139;29;20012;-96
2023/05/01 05:19:28;;;;;;;;;;;14.80;65.40;;;;;;4939909;29;19918;-96
2023/05/01 05:21:53;;;;;;;;;;;14.80;66.20;;;;;;4940340;29;20293;-96
2023/05/01 05:24:19;;;;;;;;;;;14.90;67.10;;;;;;4940985;29;19926;-96
2023/05/01 05:26:45;;;;;;;;;;;14.90;66.90;;;;;;4958351;29;20290;-96
2023/05/01 05:29:10;;;;;;;;;;;14.90;66.80;;;;;;4940343;29;19950;-96
2023/05/01 05:31:36;;;;;;;;;;;14.90;66.80;;;;;;4940057;29;19911;-96
2023/05/01 05:34:01;;;;;;;;;;;15.00;66.90;;;;;;4940112;29;20342;-96
2023/05/01 05:36:27;;;;;;;;;;;15.10;66.50;;;;;;4939587;29;19914;-96
2023/05/01 05:38:53;;;;;;;;;;;15.20;66.40;;;;;;4939688;29;19964;-96
2023/05/01 05:41:19;;;;;;;;;;;15.20;65.80;;;;;;4939056;29;20009;-96
2023/05/01 05:43:44;;;;;;;;;;;15.30;65.60;;;;;;4938869;29;19946;-96
2023/05/01 05:46:10;;;;;;;;;;;15.40;65.90;;;;;;4956299;29;20300;-96
2023/05/01 05:48:35;;;;;;;;;;;15.40;65.40;;;;;;4956365;29;19910;-96
2023/05/01 05:51:01;;;;;;;;;;;15.50;65.90;;;;;;4956349;29;19942;-96
2023/05/01 05:53:27;;;;;;;;;;;15.50;65.70;;;;;;4979639;23;20024;-96
2023/05/01 05:55:52;;;;;;;;;;;15.60;65.80;;;;;;4939030;29;20390;-96
2023/05/01 05:58:22;;;;;;;;;;;15.70;65.50;;;;;;4956656;29;20330;-96
2023/05/01 06:00:48;;;;;;;;;;;15.80;65.50;;;;;;4956792;29;19914;-96
2023/05/01 06:03:14;;;;;;;;;;;15.80;64.70;;;;;;4957234;29;20001;-96
2023/05/01 06:05:39;;;;;;;;;;;15.90;63.90;;;;;;4957164;29;19952;-96
2023/05/01 06:08:05;;;;;;;;;;;15.90;64.30;;;;;;4957453;29;20277;-96
2023/05/01 06:10:31;;;;;;;;;;;15.90;64.20;;;;;;4957531;29;20311;-96
2023/05/01 06:12:56;;;;;;;;;;;15.90;64.60;;;;;;4939347;29;19914;-96
2023/05/01 06:15:23;;;;;;;;;;;16.10;64.70;;;;;;4957013;29;19914;-96
2023/05/01 06:17:49;;;;;;;;;;;16.20;65.00;;;;;;4957070;29;20025;-96
2023/05/01 06:20:15;;;;;;;;;;;16.30;63.90;;;;;;4957540;28;19910;-96
2023/05/01 06:22:41;;;;;;;;;;;16.30;64.10;;;;;;4944425;29;19938;-96
2023/05/01 06:25:07;;;;;;;;;;;16.30;63.70;;;;;;4961567;29;19917;-96
2023/05/01 06:27:32;;;;;;;;;;;16.30;63.10;;;;;;4944344;29;19910;-96
2023/05/01 06:29:58;;;;;;;;;;;16.40;62.90;;;;;;4944702;29;19978;-96
2023/05/01 06:32:24;;;;;;;;;;;16.40;63.30;;;;;;4945140;29;19911;-96
2023/05/01 06:34:49;;;;;;;;;;;16.50;63.10;;;;;;4945213;29;20321;-96
2023/05/01 06:37:15;;;;;;;;;;;16.50;63.50;;;;;;4963867;29;20314;-96
2023/05/01 06:39:41;;;;;;;;;;;16.60;63.40;;;;;;4945766;29;19993;-96
2023/05/01 06:42:06;;;;;;;;;;;16.60;63.70;;;;;;4946337;29;19910;-96
2023/05/01 06:44:32;;;;;;;;;;;16.50;64.40;;;;;;4950580;29;20413;-96
2023/05/01 06:47:00;;;;;;;;;;;16.50;64.10;;;;;;4943642;29;19911;-96
2023/05/01 06:49:26;;;;;;;;;;;16.60;64.10;;;;;;4926975;29;19918;-96
2023/05/01 06:51:52;;;;;;;;;;;16.60;63.80;;;;;;4926178;29;19910;-96
2023/05/01 06:54:17;;;;;;;;;;;16.60;63.20;;;;;;4941762;29;20283;-96
2023/05/01 06:56:43;;;;;;;;;;;16.60;63.20;;;;;;4944527;29;19966;-96
2023/05/01 06:59:09;;;;;;;;;;;16.60;62.90;;;;;;4944342;29;19993;-96
2023/05/01 07:01:35;;;;;;;;;;;16.70;63.40;;;;;;4962070;29;19911;-96
2023/05/01 07:04:00;;;;;;;;;;;16.80;61.90;;;;;;4944024;29;20398;-96
2023/05/01 07:06:26;;;;;;;;;;;16.80;62.20;;;;;;4961013;28;19910;-96
2023/05/01 07:08:52;;;;;;;;;;;16.80;62.00;;;;;;4943601;29;20322;-96
2023/05/01 07:11:19;;;;;;;;;;;16.80;62.70;;;;;;4943582;29;20330;-96
2023/05/01 07:13:44;;;;;;;;;;;16.90;61.00;;;;;;4960567;29;19915;-96
2023/05/01 07:16:10;;;;;;;;;;;17.10;60.50;;;;;;4960840;29;19965;-96
2023/05/01 07:18:36;;;;;;;;;;;17.10;60.70;;;;;;4960869;29;20366;-96
2023/05/01 07:21:02;;;;;;;;;;;17.10;60.60;;;;;;4960820;29;19910;-96
2023/05/01 07:23:28;;;;;;;;;;;17.10;60.10;;;;;;4943376;29;19917;-96
2023/05/01 07:25:53;;;;;;;;;;;17.30;60.60;;;;;;4943849;29;19911;-96
2023/05/01 07:37:29;;;;;;;;;;;17.20;60.30;;;;;;4958828;29;19961;-96
2023/05/01 07:39:55;;;;;;;;;;;17.10;60.30;;;;;;4959231;29;20075;-96
2023/05/01 07:42:21;;;;;;;;;;;17.00;60.20;;;;;;4941617;29;19950;-96
2023/05/01 07:44:49;;;;;;;;;;;16.90;60.30;;;;;;4941111;29;19966;-96
2023/05/01 07:47:14;;;;;;;;;;;16.90;60.90;;;;;;4958718;29;19910;-96
2023/05/01 07:49:40;;;;;;;;;;;16.90;59.00;;;;;;4958840;29;20329;-96
2023/05/01 07:52:09;;;;;;;;;;;17.00;60.20;;;;;;4941907;29;19910;-96
2023/05/01 07:54:35;;;;;;;;;;;17.00;59.30;;;;;;4940322;28;20017;-96
2023/05/01 07:57:01;;;;;;;;;;;17.10;58.60;;;;;;4941096;29;20362;-96
2023/05/01 07:59:27;;;;;;;;;;;17.20;58.30;;;;;;4923966;29;19911;-96
2023/05/01 08:01:52;;;;;;;;;;;17.30;58.10;;;;;;4941746;29;19918;-96
2023/05/01 08:04:21;;;;;;;;;;;17.40;59.20;;;;;;4924437;29;19910;-96
2023/05/01 08:06:47;;;;;;;;;;;17.40;58.60;;;;;;4924592;29;19949;-96
2023/05/01 08:09:13;;;;;;;;;;;17.60;58.90;;;;;;4924400;29;19957;-96
2023/05/01 08:11:39;;;;;;;;;;;17.80;58.40;;;;;;4924461;29;20291;-96
2023/05/01 08:14:04;;;;;;;;;;;17.90;57.20;;;;;;4923459;29;19969;-96
2023/05/01 08:16:30;;;;;;;;;;;17.90;55.80;;;;;;4923998;29;19921;-96
2023/05/01 08:18:55;;;;;;;;;;;18.00;56.50;;;;;;4923935;29;19910;-96
2023/05/01 08:21:21;;;;;;;;;;;18.10;56.20;;;;;;4924331;29;19911;-96
2023/05/01 08:23:47;;;;;;;;;;;18.30;57.20;;;;;;4923989;29;19918;-96
2023/05/01 08:26:13;;;;;;;;;;;18.30;55.80;;;;;;4940631;29;20256;-96
2023/05/01 08:28:38;;;;;;;;;;;18.40;55.00;;;;;;4940923;29;20291;-96
2023/05/01 08:31:04;;;;;;;;;;;18.50;56.70;;;;;;4940410;29;19958;-96
2023/05/01 08:33:29;;;;;;;;;;;18.60;56.00;;;;;;4923732;29;19916;-96
2023/05/01 08:35:55;;;;;;;;;;;18.70;55.80;;;;;;4941023;29;19911;-96
2023/05/01 08:38:21;;;;;;;;;;;18.90;55.20;;;;;;4923381;29;19911;-96
2023/05/01 08:40:50;;;;;;;;;;;18.90;54.70;;;;;;4940187;29;19963;-96
2023/05/01 08:43:16;;;;;;;;;;;18.90;55.00;;;;;;4940763;29;19911;-96
2023/05/01 08:45:43;;;;;;;;;;;18.80;54.50;;;;;;4923702;29;20327;-96
2023/05/01 08:48:09;;;;;;;;;;;18.80;55.00;;;;;;4923603;29;19918;-96
2023/05/01 08:50:38;;;;;;;;;;;19.00;54.90;;;;;;4924185;29;19911;-96
2023/05/01 08:53:05;;;;;;;;;;;19.20;55.60;;;;;;4941269;28;20054;-96
2023/05/01 08:55:31;;;;;;;;;;;19.30;54.60;;;;;;4923531;29;20054;-96
2023/05/01 08:57:57;;;;;;;;;;;19.30;52.60;;;;;;4940715;29;19938;-96
2023/05/01 09:00:23;;;;;;;;;;;19.30;53.80;;;;;;4923102;29;19914;-96
2023/05/01 09:02:50;;;;;;;;;;;19.30;52.70;;;;;;4940291;29;19962;-96
2023/05/01 09:05:16;;;;;;;;;;;19.40;53.80;;;;;;4940225;29;19958;-96
2023/05/01 09:07:42;;;;;;;;;;;19.40;52.20;;;;;;4922187;29;20368;-97
2023/05/01 09:10:09;;;;;;;;;;;19.40;51.60;;;;;;4922298;29;19910;-96
2023/05/01 09:12:34;;;;;;;;;;;19.40;53.40;;;;;;4939972;29;19915;-96
2023/05/01 09:15:01;;;;;;;;;;;19.30;52.10;;;;;;4922656;29;19919;-96
2023/05/01 09:17:29;;;;;;;;;;;19.40;54.30;;;;;;4922444;29;19981;-96
2023/05/01 09:19:55;;;;;;;;;;;19.50;51.90;;;;;;4939825;29;19918;-96
2023/05/01 09:22:21;;;;;;;;;;;19.40;52.40;;;;;;4923472;29;19910;-96
2023/05/01 09:24:47;;;;;;;;;;;19.40;53.10;;;;;;4924271;29;19926;-96
2023/05/01 09:27:13;;;;;;;;;;;19.50;51.90;;;;;;4923815;29;19911;-96
2023/05/01 09:29:38;;;;;;;;;;;19.60;51.90;;;;;;4941016;29;20001;-96
2023/05/01 09:32:24;;;;;;;;;;;19.50;51.00;;;;;;4942062;29;19953;-96
2023/05/01 09:34:50;;;;;;;;;;;19.60;50.50;;;;;;4923517;29;19915;-96
2023/05/01 09:37:28;;;;;;;;;;;19.80;50.50;;;;;;4940409;29;19918;-96
2023/05/01 09:40:03;;;;;;;;;;;19.70;50.00;;;;;;4922609;29;19911;-96
2023/05/01 09:42:31;;;;;;;;;;;19.80;50.40;;;;;;4922894;29;20017;-96
2023/05/01 09:44:57;;;;;;;;;;;19.80;49.60;;;;;;4939904;29;19942;-96
2023/05/01 09:47:22;;;;;;;;;;;19.80;49.90;;;;;;4923496;29;19918;-96
2023/05/01 09:49:48;;;;;;;;;;;20.00;49.90;;;;;;4924376;29;19911;-96
2023/05/01 09:52:15;;;;;;;;;;;20.10;49.50;;;;;;4941694;28;19918;-96
2023/05/01 09:54:42;;;;;;;;;;;20.10;49.20;;;;;;4923821;29;20376;-96
2023/05/01 09:57:07;;;;;;;;;;;20.30;49.80;;;;;;4927697;29;19911;-96
2023/05/01 09:59:33;;;;;;;;;;;20.30;50.50;;;;;;4946304;29;19918;-96
2023/05/01 10:02:00;;;;;;;;;;;20.40;49.40;;;;;;4946651;29;19955;-96
2023/05/01 10:04:32;;;;;;;;;;;20.60;50.20;;;;;;4930678;29;19915;-96
2023/05/01 10:07:13;;;;;;;;;;;20.70;49.20;;;;;;4948537;29;19910;-96
2023/05/01 10:09:41;;;;;;;;;;;20.90;49.40;;;;;;4931478;29;19911;-96
2023/05/01 10:12:06;;;;;;;;;;;21.00;47.30;;;;;;4928424;29;19911;-96
2023/05/01 10:14:37;;;;;;;;;;;21.10;45.60;;;;;;4946585;29;20476;-96
2023/05/01 10:17:16;;;;;;;;;;;21.20;46.10;;;;;;4947737;29;19911;-96
2023/05/01 10:19:42;;;;;;;;;;;21.20;44.80;;;;;;4928258;29;19911;-96
2023/05/01 10:22:07;;;;;;;;;;;21.30;45.50;;;;;;4946500;29;20001;-96
2023/05/01 10:24:35;;;;;;;;;;;21.30;45.50;;;;;;4929666;29;20267;-96
2023/05/01 10:27:04;;;;;;;;;;;21.30;46.90;;;;;;4930735;29;19915;-96
2023/05/01 10:29:30;;;;;;;;;;;21.30;45.60;;;;;;4946849;29;19911;-96
2023/05/01 10:31:57;;;;;;;;;;;21.30;44.10;;;;;;4929569;29;19911;-96
2023/05/01 10:34:24;;;;;;;;;;;21.40;44.40;;;;;;4928066;29;19922;-96
2023/05/01 10:36:56;;;;;;;;;;;21.30;44.00;;;;;;4945709;29;19971;-96
2023/05/01 10:39:35;;;;;;;;;;;21.40;45.70;;;;;;4928756;29;19910;-96
2023/05/01 10:42:05;;;;;;;;;;;21.60;44.90;;;;;;4928704;29;19986;-96
2023/05/01 10:44:31;;;;;;;;;;;21.70;46.50;;;;;;4930118;29;20005;-96
2023/05/01 10:46:56;;;;;;;;;;;21.80;45.10;;;;;;4930544;29;19911;-96
2023/05/01 10:49:22;;;;;;;;;;;21.90;45.10;;;;;;4930793;29;19917;-96
2023/05/01 10:51:57;;;;;;;;;;;22.10;44.40;;;;;;4948373;29;19950;-96
2023/05/01 10:54:32;;;;;;;;;;;22.20;44.80;;;;;;4947142;29;19922;-96
2023/05/01 10:57:02;;;;;;;;;;;22.20;45.00;;;;;;4949630;29;19914;-96
2023/05/01 10:59:46;;;;;;;;;;;22.40;47.40;;;;;;4949172;29;19918;-96
2023/05/01 11:02:30;;;;;;;;;;;22.30;43.90;;;;;;4948290;29;19910;-96
2023/05/01 11:04:56;;;;;;;;;;;22.20;41.10;;;;;;4949344;29;19911;-96
2023/05/01 11:07:22;;;;;;;;;;;22.20;44.50;;;;;;4949551;29;19981;-96
2023/05/01 11:09:56;;;;;;;;;;;22.40;44.80;;;;;;4968007;29;20005;-96
2023/05/01 11:12:48;;;;;;;;;;;22.60;44.80;;;;;;4968587;29;19911;-96
2023/05/01 11:15:32;;;;;;;;;;;22.80;47.40;;;;;;4967364;28;19914;-96
2023/05/01 11:17:59;;;;;;;;;;;23.00;46.90;;;;;;4969431;29;19938;-96
2023/05/01 11:20:24;;;;;;;;;;;23.10;45.40;;;;;;4951414;29;20009;-97
2023/05/01 11:22:54;;;;;;;;;;;23.20;45.10;;;;;;4968949;29;19914;-96
2023/05/01 11:25:21;;;;;;;;;;;23.30;44.20;;;;;;4969662;29;19911;-96
2023/05/01 11:27:51;;;;;;;;;;;23.40;44.10;;;;;;4951277;29;19922;-96
2023/05/01 11:30:19;;;;;;;;;;;23.30;43.80;;;;;;4950439;29;19935;-96
2023/05/01 11:32:46;;;;;;;;;;;23.50;43.00;;;;;;4968346;28;19911;-96
2023/05/01 11:35:15;;;;;;;;;;;23.50;41.80;;;;;;4949907;29;20006;-96
2023/05/01 11:37:44;;;;;;;;;;;23.40;42.40;;;;;;4950019;29;19921;-96
2023/05/01 11:40:26;;;;;;;;;;;23.40;42.00;;;;;;4951135;29;19933;-96
2023/05/01 11:43:00;;;;;;;;;;;23.50;43.90;;;;;;4950199;29;19911;-96
2023/05/01 11:45:26;;;;;;;;;;;23.60;41.10;;;;;;4946964;29;19911;-96
2023/05/01 11:47:52;;;;;;;;;;;23.50;44.10;;;;;;4949114;29;19926;-96
2023/05/01 11:50:19;;;;;;;;;;;23.50;43.60;;;;;;4949606;29;19934;-96
2023/05/01 11:52:45;;;;;;;;;;;23.40;43.10;;;;;;4962667;28;19943;-96
2023/05/01 11:55:11;;;;;;;;;;;23.30;43.00;;;;;;4930302;29;19926;-96
2023/05/01 11:58:07;;;;;;;;;;;23.20;43.10;;;;;;4929984;29;19910;-96
2023/05/01 12:00:40;;;;;;;;;;;23.00;41.70;;;;;;4921332;29;19966;-96
2023/05/01 12:03:07;;;;;;;;;;;22.80;40.70;;;;;;4946119;29;19911;-96
2023/05/01 12:05:36;;;;;;;;;;;22.70;43.40;;;;;;4929183;29;19957;-96
2023/05/01 12:08:12;;;;;;;;;;;22.60;45.60;;;;;;4929334;29;19914;-96
2023/05/01 12:10:39;;;;;;;;;;;22.60;44.60;;;;;;4929448;29;20386;-96
2023/05/01 12:13:06;;;;;;;;;;;22.50;44.20;;;;;;4929167;29;19946;-96
2023/05/01 12:15:36;;;;;;;;;;;22.40;45.30;;;;;;4928960;29;19974;-96
2023/05/01 12:18:02;;;;;;;;;;;22.40;44.30;;;;;;4928804;29;19914;-96
2023/05/01 12:20:46;;;;;;;;;;;22.30;44.00;;;;;;4929498;29;19915;-96
2023/05/01 12:23:15;;;;;;;;;;;22.40;45.70;;;;;;4929502;29;19914;-96
2023/05/01 12:25:41;;;;;;;;;;;22.30;46.80;;;;;;4930063;29;19910;-96
2023/05/01 12:28:18;;;;;;;;;;;22.40;46.40;;;;;;4929888;29;19989;-96
2023/05/01 12:30:45;;;;;;;;;;;22.40;45.90;;;;;;4929243;29;19911;-96
2023/05/01 12:33:12;;;;;;;;;;;22.30;44.60;;;;;;4946901;29;19911;-96
2023/05/01 12:35:39;;;;;;;;;;;22.40;45.00;;;;;;4929299;29;20367;-97
2023/05/01 12:38:13;;;;;;;;;;;22.30;45.80;;;;;;4929460;29;19918;-96
2023/05/01 12:40:40;;;;;;;;;;;22.30;46.80;;;;;;4946122;29;19911;-96
2023/05/01 12:43:06;;;;;;;;;;;22.10;47.50;;;;;;4928767;29;19934;-96
2023/05/01 12:45:37;;;;;;;;;;;22.00;47.20;;;;;;4927502;29;20369;-96
2023/05/01 12:48:08;;;;;;;;;;;22.00;47.20;;;;;;4928276;29;19911;-96
2023/05/01 12:50:37;;;;;;;;;;;21.90;45.90;;;;;;4946093;29;19911;-96
2023/05/01 12:53:04;;;;;;;;;;;21.90;46.00;;;;;;4934038;29;19930;-96
2023/05/01 12:55:29;;;;;;;;;;;21.80;45.00;;;;;;4947457;29;19940;-96
2023/05/01 12:57:55;;;;;;;;;;;21.80;46.00;;;;;;4946392;29;19911;-96
2023/05/01 13:00:21;;;;;;;;;;;21.60;45.30;;;;;;4944086;29;19915;-96
2023/05/01 13:02:47;;;;;;;;;;;21.40;47.30;;;;;;4943983;29;20049;-96
2023/05/01 13:05:15;;;;;;;;;;;21.30;47.60;;;;;;4944835;29;23451;-96
2023/05/01 13:07:47;;;;;;;;;;;21.10;48.50;;;;;;4943619;29;19914;-96
2023/05/01 13:10:13;;;;;;;;;;;20.90;51.90;;;;;;4944522;29;19918;-96
2023/05/01 13:12:43;;;;;;;;;;;20.70;52.60;;;;;;4944735;29;19910;-96
2023/05/01 13:15:17;;;;;;;;;;;20.40;54.00;;;;;;4945035;29;19918;-96
2023/05/01 13:17:43;;;;;;;;;;;20.20;53.60;;;;;;4944675;29;19910;-96
2023/05/01 13:20:09;;;;;;;;;;;19.90;56.70;;;;;;4962061;29;19918;-96
2023/05/01 13:22:36;;;;;;;;;;;19.80;56.40;;;;;;4945151;29;19917;-96
2023/05/01 13:25:03;;;;;;;;;;;19.70;58.40;;;;;;4944097;29;19914;-96
2023/05/01 13:27:29;;;;;;;;;;;19.40;59.60;;;;;;4943884;29;19911;-96
2023/05/01 13:29:56;;;;;;;;;;;19.30;57.50;;;;;;4961996;28;20294;-96
2023/05/01 13:32:23;;;;;;;;;;;19.30;60.00;;;;;;4961473;29;19933;-96
2023/05/01 13:34:49;;;;;;;;;;;19.20;59.10;;;;;;4943568;29;19915;-96
2023/05/01 13:37:14;;;;;;;;;;;19.10;59.70;;;;;;4943577;29;19910;-96
2023/05/01 13:39:41;;;;;;;;;;;19.10;59.50;;;;;;4945162;29;19921;-96
2023/05/01 13:42:08;;;;;;;;;;;19.10;59.00;;;;;;4962173;29;19911;-96
2023/05/01 13:44:42;;;;;;;;;;;19.10;58.50;;;;;;4945107;29;20382;-96
2023/05/01 13:47:07;;;;;;;;;;;19.00;58.20;;;;;;4961846;29;19917;-96
2023/05/01 13:49:33;;;;;;;;;;;19.00;59.30;;;;;;4945370;29;19910;-96
2023/05/01 13:51:59;;;;;;;;;;;18.90;57.80;;;;;;4945206;29;19917;-96
2023/05/01 13:54:25;;;;;;;;;;;18.90;59.60;;;;;;5004176;23;19926;-96
2023/05/01 13:56:51;;;;;;;;;;;18.80;59.10;;;;;;4965478;28;19914;-96
2023/05/01 13:59:17;;;;;;;;;;;18.80;59.20;;;;;;4983406;28;19965;-96
2023/05/01 14:01:45;;;;;;;;;;;18.80;59.50;;;;;;4967379;28;19914;-96
2023/05/01 14:04:15;;;;;;;;;;;18.80;59.80;;;;;;4966991;28;19917;-96
2023/05/01 14:06:47;;;;;;;;;;;18.90;59.70;;;;;;4967451;28;19953;-96
2023/05/01 14:09:15;;;;;;;;;;;18.90;60.30;;;;;;4966429;28;19910;-96
2023/05/01 14:11:43;;;;;;;;;;;18.90;61.70;;;;;;4966258;28;19933;-96
2023/05/01 14:14:09;;;;;;;;;;;18.80;61.00;;;;;;4984190;28;19918;-96
2023/05/01 14:16:35;;;;;;;;;;;18.80;60.30;;;;;;4968471;28;19910;-96
2023/05/01 14:19:04;;;;;;;;;;;18.80;59.60;;;;;;4968379;28;19910;-96
2023/05/01 14:21:30;;;;;;;;;;;18.80;57.70;;;;;;4968678;28;19910;-96
2023/05/01 14:23:56;;;;;;;;;;;18.80;57.40;;;;;;4968853;28;19910;-96
2023/05/01 14:26:23;;;;;;;;;;;18.80;58.80;;;;;;4970030;28;19936;-97
2023/05/01 14:28:51;;;;;;;;;;;18.80;59.80;;;;;;4970945;28;19910;-96